Time;durP1;ratioP1;P1;durP2;ratioP2;P2;SDS_P1;SDS_P2;PMS_P1;PMS_P2;Temp;Humidity;BMP_temperature;BMP_pressure;BME280_temperature;BME280_humidity;BME280_pressure;Samples;Min_cycle;Max_cycle;Signal;HPM_P1;HPM_P2
2024/04/12 00:01:47;;;;;;;;;;;;;;;21.92;39.12;101886.77;102943;1288;75502;-76
2024/04/12 00:04:17;;;;;;;;;;;;;;;21.92;39.09;101888.05;102977;1291;64445;-78
2024/04/12 00:06:43;;;;;;;;;;;;;;;21.93;39.10;101889.10;103150;1288;63058;-79
2024/04/12 00:09:29;;;;;;;;;;;;;;;21.92;39.04;101885.52;103114;1293;62997;-78
2024/04/12 00:11:54;;;;;;;;;;;;;;;21.92;39.02;101891.46;103123;1294;75902;-77
2024/04/12 00:14:21;;;;;;;;;;;;;;;21.92;39.09;101887.18;103165;1288;63768;-79
2024/04/12 00:17:15;;;;;;;;;;;;;;;21.91;39.04;101881.99;103143;1292;62971;-78
2024/04/12 00:19:41;;;;;;;;;;;;;;;21.92;39.02;101882.70;103077;1290;72485;-78
2024/04/12 00:22:06;;;;;;;;;;;;;;;21.91;39.03;101881.13;103185;1289;63004;-78
2024/04/12 00:24:36;;;;;;;;;;;;;;;21.91;38.99;101879.66;103457;1291;63648;-78
2024/04/12 00:27:02;;;;;;;;;;;;;;;21.91;39.06;101882.91;103256;1288;62939;-80
2024/04/12 00:29:36;;;;;;;;;;;;;;;21.91;39.20;101883.43;103168;1294;64109;-78
2024/04/12 00:32:18;;;;;;;;;;;;;;;21.91;39.04;101885.25;103024;1292;76092;-79
2024/04/12 00:34:47;;;;;;;;;;;;;;;21.91;39.05;101881.84;103217;1289;63642;-77
2024/04/12 00:37:15;;;;;;;;;;;;;;;21.91;39.09;101880.77;103173;1289;62904;-79
2024/04/12 00:39:42;;;;;;;;;;;;;;;21.91;39.11;101879.52;103251;1294;72361;-78
2024/04/12 00:42:09;;;;;;;;;;;;;;;21.91;39.09;101876.84;103160;1288;75211;-78
2024/04/12 00:44:36;;;;;;;;;;;;;;;21.91;39.10;101879.86;103082;1292;63824;-79
2024/04/12 00:47:05;;;;;;;;;;;;;;;21.91;39.07;101877.71;103106;1292;63437;-77
2024/04/12 00:49:33;;;;;;;;;;;;;;;21.91;39.06;101877.70;103290;1293;72519;-78
2024/04/12 00:52:02;;;;;;;;;;;;;;;21.91;39.18;101881.30;103324;1288;75914;-77
2024/04/12 00:54:29;;;;;;;;;;;;;;;21.91;39.03;101878.96;103194;1289;63339;-78
2024/04/12 00:56:56;;;;;;;;;;;;;;;21.91;39.05;101879.86;103193;1289;63329;-78
2024/04/12 00:59:23;;;;;;;;;;;;;;;21.91;39.00;101878.63;103157;1292;72996;-79
2024/04/12 01:01:49;;;;;;;;;;;;;;;21.91;39.15;101883.27;103076;1294;62943;-78
2024/04/12 01:04:19;;;;;;;;;;;;;;;21.91;39.14;101882.23;103351;1289;63023;-77
2024/04/12 01:06:45;;;;;;;;;;;;;;;21.91;39.09;101879.86;103095;1289;63193;-77
2024/04/12 01:09:12;;;;;;;;;;;;;;;21.90;39.10;101877.95;103113;1295;63073;-78
2024/04/12 01:11:38;;;;;;;;;;;;;;;21.91;39.06;101878.64;103126;1292;63034;-80
2024/04/12 01:14:13;;;;;;;;;;;;;;;21.90;39.13;101878.11;103357;1295;63052;-77
2024/04/12 01:16:39;;;;;;;;;;;;;;;21.90;39.02;101877.77;103205;1289;62773;-79
2024/04/12 01:19:05;;;;;;;;;;;;;;;21.90;39.11;101877.23;103259;1289;64084;-76
2024/04/12 01:21:31;;;;;;;;;;;;;;;21.90;39.12;101875.44;103233;1288;63899;-78
2024/04/12 01:24:06;;;;;;;;;;;;;;;21.90;39.11;101875.44;103130;1293;62847;-78
2024/04/12 01:26:31;;;;;;;;;;;;;;;21.89;39.10;101874.77;103491;1288;64713;-78
2024/04/12 01:28:58;;;;;;;;;;;;;;;21.89;39.20;101876.73;103234;1294;64003;-78
2024/04/12 01:31:28;;;;;;;;;;;;;;;21.89;39.29;101876.55;103022;1289;75070;-78
2024/04/12 01:33:54;;;;;;;;;;;;;;;21.89;39.03;101877.64;103265;1293;63028;-79
2024/04/12 01:36:21;;;;;;;;;;;;;;;21.90;39.11;101877.80;103229;1292;64154;-80
2024/04/12 01:38:59;;;;;;;;;;;;;;;21.89;39.17;101877.27;103193;1288;63627;-79
2024/04/12 01:41:31;;;;;;;;;;;;;;;21.89;39.11;101877.63;103215;1289;76083;-79
2024/04/12 01:44:09;;;;;;;;;;;;;;;21.89;39.19;101876.03;103291;1289;62979;-78
2024/04/12 01:46:38;;;;;;;;;;;;;;;21.90;39.12;101880.31;103218;1289;63344;-78
2024/04/12 01:49:10;;;;;;;;;;;;;;;21.89;39.20;101886.96;103116;1294;71604;-78
2024/04/12 01:51:40;;;;;;;;;;;;;;;21.89;39.21;101881.23;103010;1294;76127;-78
2024/04/12 01:54:16;;;;;;;;;;;;;;;21.89;39.13;101885.34;103185;1292;62947;-78
2024/04/12 01:56:50;;;;;;;;;;;;;;;21.89;39.19;101879.27;103208;1292;62904;-77
2024/04/12 01:59:21;;;;;;;;;;;;;;;21.89;39.13;101881.95;103138;1289;72553;-78
2024/04/12 02:01:50;;;;;;;;;;;;;;;21.89;39.18;101883.04;103243;1288;76506;-78
2024/04/12 02:04:20;;;;;;;;;;;;;;;21.88;39.13;101882.72;103200;1292;62831;-77
2024/04/12 02:06:48;;;;;;;;;;;;;;;21.88;39.17;101885.39;103106;1288;62997;-77
2024/04/12 02:09:14;;;;;;;;;;;;;;;21.89;39.17;101887.89;103146;1294;72528;-77
2024/04/12 02:11:47;;;;;;;;;;;;;;;21.89;39.16;101890.41;103386;1292;64104;-78
2024/04/12 02:14:14;;;;;;;;;;;;;;;21.88;39.19;101895.23;103225;1289;63523;-79
2024/04/12 02:16:41;;;;;;;;;;;;;;;21.88;39.21;101892.95;103166;1294;63194;-78
2024/04/12 02:19:10;;;;;;;;;;;;;;;21.88;39.25;101894.94;103103;1289;71431;-78
2024/04/12 02:21:38;;;;;;;;;;;;;;;21.88;39.22;101893.66;103106;1289;76071;-78
2024/04/12 02:24:08;;;;;;;;;;;;;;;21.88;39.17;101894.41;102731;1289;661923;-79
2024/04/12 02:26:35;;;;;;;;;;;;;;;21.88;39.26;101894.02;103513;1292;64094;-78
2024/04/12 02:29:04;;;;;;;;;;;;;;;21.87;39.39;101892.98;103223;1288;72299;-78
2024/04/12 02:31:31;;;;;;;;;;;;;;;21.88;39.37;101897.63;103269;1290;76043;-79
2024/04/12 02:33:58;;;;;;;;;;;;;;;21.88;39.31;101897.96;103268;1288;63036;-79
2024/04/12 02:36:25;;;;;;;;;;;;;;;21.88;39.35;101900.11;103300;1288;63019;-78
2024/04/12 02:38:51;;;;;;;;;;;;;;;21.88;39.36;101907.10;103366;1288;72300;-77
2024/04/12 02:41:16;;;;;;;;;;;;;;;21.88;39.28;101909.08;103356;1292;63001;-77
2024/04/12 02:43:49;;;;;;;;;;;;;;;21.88;39.27;101913.55;103128;1290;63472;-77
2024/04/12 02:46:14;;;;;;;;;;;;;;;21.87;39.28;101912.69;103310;1294;62994;-77
2024/04/12 02:48:43;;;;;;;;;;;;;;;21.88;39.30;101914.77;103275;1294;63780;-77
2024/04/12 02:51:12;;;;;;;;;;;;;;;21.87;39.42;101918.80;103202;1291;75820;-79
2024/04/12 02:53:38;;;;;;;;;;;;;;;21.88;39.32;101921.13;103166;1290;63007;-78
2024/04/12 02:56:08;;;;;;;;;;;;;;;21.87;39.31;101924.36;103317;1289;63077;-78
2024/04/12 02:58:44;;;;;;;;;;;;;;;21.87;39.43;101924.32;103424;1292;72282;-78
2024/04/12 03:01:13;;;;;;;;;;;;;;;21.87;39.38;101922.54;103140;1290;76143;-79
2024/04/12 03:03:45;;;;;;;;;;;;;;;21.87;39.34;101923.96;103212;1292;62953;-78
2024/04/12 03:06:22;;;;;;;;;;;;;;;21.87;39.37;101927.77;103239;1292;62931;-78
2024/04/12 03:09:05;;;;;;;;;;;;;;;21.87;39.35;101926.53;103223;1290;72198;-77
2024/04/12 03:11:34;;;;;;;;;;;;;;;21.87;39.34;101930.62;103270;1288;62974;-78
2024/04/12 03:14:09;;;;;;;;;;;;;;;21.87;39.35;101929.03;103335;1289;62929;-78
2024/04/12 03:16:46;;;;;;;;;;;;;;;21.87;39.37;101929.73;103166;1295;62964;-79
2024/04/12 03:19:14;;;;;;;;;;;;;;;21.86;39.52;101930.33;102888;1295;71162;-79
2024/04/12 03:21:42;;;;;;;;;;;;;;;21.86;39.55;101927.45;102978;1294;76163;-79
2024/04/12 03:24:11;;;;;;;;;;;;;;;21.86;39.37;101934.11;103025;1295;63878;-81
2024/04/12 03:26:36;;;;;;;;;;;;;;;21.85;39.38;101937.36;103444;1295;62848;-80
2024/04/12 03:29:05;;;;;;;;;;;;;;;21.86;39.50;101936.80;103400;1292;62997;-78
2024/04/12 03:31:33;;;;;;;;;;;;;;;21.86;39.43;101936.60;103179;1294;75252;-79
2024/04/12 03:34:00;;;;;;;;;;;;;;;21.86;39.48;101939.83;103182;1294;62927;-78
2024/04/12 03:36:26;;;;;;;;;;;;;;;21.86;39.48;101943.77;103262;1294;62996;-79
2024/04/12 03:41:38;;;;;;;;;;;;;;;21.86;39.45;101945.91;103262;1293;76162;-79
2024/04/12 03:44:08;;;;;;;;;;;;;;;21.86;39.49;101945.57;103290;1292;62959;-79
2024/04/12 03:46:35;;;;;;;;;;;;;;;21.86;39.58;101946.83;103240;1295;62874;-78
2024/04/12 03:49:02;;;;;;;;;;;;;;;21.85;39.42;101949.92;103236;1291;72527;-79
2024/04/12 03:51:29;;;;;;;;;;;;;;;21.85;39.43;101950.10;103270;1292;75987;-79
2024/04/12 03:54:10;;;;;;;;;;;;;;;21.85;39.49;101953.52;103047;1295;63529;-79
2024/04/12 03:56:36;;;;;;;;;;;;;;;21.85;39.48;101953.71;103053;1297;63016;-79
2024/04/12 03:59:02;;;;;;;;;;;;;;;21.84;39.52;101956.26;103009;1294;64271;-79
2024/04/12 04:01:31;;;;;;;;;;;;;;;21.83;39.52;101961.50;102881;1298;63673;-79
2024/04/12 04:03:57;;;;;;;;;;;;;;;21.83;39.56;101961.88;103013;1297;63025;-78
2024/04/12 04:06:24;;;;;;;;;;;;;;;21.82;39.54;101963.71;103198;1297;63661;-79
2024/04/12 04:08:51;;;;;;;;;;;;;;;21.82;39.50;101964.46;103321;1289;72491;-79
2024/04/12 04:11:17;;;;;;;;;;;;;;;21.81;39.55;101963.42;103074;1291;63079;-79
2024/04/12 04:13:44;;;;;;;;;;;;;;;21.81;39.53;101964.33;103424;1295;64253;-79
2024/04/12 04:16:10;;;;;;;;;;;;;;;21.81;39.49;101967.39;103295;1291;62980;-79
2024/04/12 04:18:36;;;;;;;;;;;;;;;21.80;39.38;101967.05;103433;1294;62995;-81
2024/04/12 04:21:07;;;;;;;;;;;;;;;21.79;39.50;101968.71;103282;1297;64121;-79
2024/04/12 04:23:42;;;;;;;;;;;;;;;21.79;39.56;101969.26;103273;1290;62857;-78
2024/04/12 04:26:08;;;;;;;;;;;;;;;21.79;39.38;101969.96;103434;1292;63084;-79
2024/04/12 04:28:34;;;;;;;;;;;;;;;21.79;39.46;101971.08;103234;1295;62976;-78
2024/04/12 04:31:05;;;;;;;;;;;;;;;21.79;39.54;101969.81;103302;1291;63081;-78
2024/04/12 04:33:34;;;;;;;;;;;;;;;21.79;39.47;101977.15;103560;1293;62841;-80
2024/04/12 04:36:08;;;;;;;;;;;;;;;21.79;39.45;101975.70;103588;1289;62822;-79
2024/04/12 04:38:36;;;;;;;;;;;;;;;21.79;39.54;101980.20;103479;1294;72324;-78
2024/04/12 04:41:06;;;;;;;;;;;;;;;21.79;39.52;101978.92;103540;1289;76020;-79
2024/04/12 04:43:39;;;;;;;;;;;;;;;21.77;39.42;101982.45;103241;1289;62875;-77
2024/04/12 04:46:38;;;;;;;;;;;;;;;21.76;39.52;101980.52;103735;1291;63017;-78
2024/04/12 04:48:56;;;;;;;;;;;;;;;21.75;39.45;101983.46;104132;1289;72315;-79
2024/04/12 04:51:23;;;;;;;;;;;;;;;21.72;39.48;101983.83;103564;1290;62984;-78
2024/04/12 04:53:52;;;;;;;;;;;;;;;21.69;39.34;101984.88;103701;1288;62860;-79
2024/04/12 04:56:24;;;;;;;;;;;;;;;21.67;39.51;101982.30;103884;1289;63606;-80
2024/04/12 04:58:53;;;;;;;;;;;;;;;21.62;39.42;101986.52;103515;1292;72551;-77
2024/04/12 05:01:19;;;;;;;;;;;;;;;21.60;39.54;101987.11;103893;1294;77704;-77
2024/04/12 05:03:53;;;;;;;;;;;;;;;21.59;39.55;101987.38;104355;1289;63631;-78
2024/04/12 05:06:25;;;;;;;;;;;;;;;21.60;39.54;101986.62;104797;1294;60987;-79
2024/04/12 05:08:52;;;;;;;;;;;;;;;21.60;39.47;101988.91;104695;1292;72510;-80
2024/04/12 05:11:18;;;;;;;;;;;;;;;21.60;39.52;101989.63;104957;1288;76213;-80
2024/04/12 05:13:49;;;;;;;;;;;;;;;21.60;39.56;101987.68;104867;1289;63705;-79
2024/04/12 05:16:19;;;;;;;;;;;;;;;21.60;39.65;101990.72;104455;1294;62985;-79
2024/04/12 05:18:44;;;;;;;;;;;;;;;21.62;39.51;101989.02;104426;1292;73290;-79
2024/04/12 05:21:13;;;;;;;;;;;;;;;21.63;39.46;101986.98;104570;1294;62895;-81
2024/04/12 05:23:52;;;;;;;;;;;;;;;21.64;39.45;101985.50;104422;1292;62691;-80
2024/04/12 05:26:20;;;;;;;;;;;;;;;21.64;39.47;101986.77;104370;1292;62854;-81
2024/04/12 05:28:56;;;;;;;;;;;;;;;21.64;39.33;101984.08;105999;1292;73659;-78
2024/04/12 05:31:21;;;;;;;;;;;;;;;21.65;39.44;101984.41;105120;1290;75988;-80
2024/04/12 05:33:49;;;;;;;;;;;;;;;21.64;39.33;101985.86;104601;1292;62988;-79
2024/04/12 05:36:16;;;;;;;;;;;;;;;21.64;39.15;101988.94;104877;1290;63005;-80
2024/04/12 05:38:45;;;;;;;;;;;;;;;21.61;39.19;101988.88;104470;1294;71306;-80
2024/04/12 05:41:13;;;;;;;;;;;;;;;21.56;39.12;101993.09;106134;1290;76578;-79
2024/04/12 05:43:38;;;;;;;;;;;;;;;21.53;39.19;101993.41;104953;1295;63006;-79
2024/04/12 05:46:05;;;;;;;;;;;;;;;21.55;39.22;101996.56;104609;1289;60842;-79
2024/04/12 05:48:31;;;;;;;;;;;;;;;21.56;39.15;101994.34;104754;1291;62839;-81
2024/04/12 05:50:58;;;;;;;;;;;;;;;21.57;39.17;101994.81;104583;1293;61745;-78
2024/04/12 05:53:33;;;;;;;;;;;;;;;21.56;39.01;102000.60;104709;1288;62941;-79
2024/04/12 05:58:43;;;;;;;;;;;;;;;21.42;39.03;102007.96;104742;1290;72476;-80
2024/04/12 06:01:08;;;;;;;;;;;;;;;21.41;39.09;102010.86;104395;1294;62915;-80
2024/04/12 06:03:34;;;;;;;;;;;;;;;21.42;39.05;102008.11;104377;1289;63485;-78
2024/04/12 06:06:00;;;;;;;;;;;;;;;21.41;39.27;102009.62;104485;1291;63366;-79
2024/04/12 06:08:26;;;;;;;;;;;;;;;21.44;39.14;102012.84;104659;1291;62741;-79
2024/04/12 06:10:51;;;;;;;;;;;;;;;21.49;39.35;102009.02;104552;1295;64072;-80
2024/04/12 06:13:17;;;;;;;;;;;;;;;21.54;39.27;102013.09;104184;1290;77150;-77
2024/04/12 06:15:43;;;;;;;;;;;;;;;21.58;39.11;102013.58;104437;1294;62933;-79
2024/04/12 06:18:10;;;;;;;;;;;;;;;21.63;39.20;102019.26;104444;1289;60544;-78
2024/04/12 06:20:35;;;;;;;;;;;;;;;21.66;39.14;102017.27;104542;1288;62989;-78
2024/04/12 06:23:09;;;;;;;;;;;;;;;21.69;39.18;102021.23;104296;1288;63013;-80
2024/04/12 06:25:38;;;;;;;;;;;;;;;21.72;39.17;102014.61;105192;1289;60987;-78
2024/04/12 06:28:11;;;;;;;;;;;;;;;21.74;39.21;102014.66;104508;1289;63091;-80
2024/04/12 06:30:39;;;;;;;;;;;;;;;21.77;39.15;102012.20;104224;1295;72138;-78
2024/04/12 06:33:06;;;;;;;;;;;;;;;21.80;39.11;102011.88;104496;1291;76049;-79
2024/04/12 06:35:32;;;;;;;;;;;;;;;21.82;38.99;102017.69;104581;1291;62805;-79
2024/04/12 06:37:58;;;;;;;;;;;;;;;21.83;39.06;102017.92;104508;1294;62833;-77
2024/04/12 06:40:28;;;;;;;;;;;;;;;21.85;39.10;102019.28;104326;1290;62922;-79
2024/04/12 06:42:54;;;;;;;;;;;;;;;21.85;39.10;102018.58;104658;1291;76189;-79
2024/04/12 06:45:20;;;;;;;;;;;;;;;21.86;38.98;102017.81;104467;1291;62956;-81
2024/04/12 06:47:48;;;;;;;;;;;;;;;21.87;39.04;102015.77;104573;1290;62956;-79
2024/04/12 06:50:14;;;;;;;;;;;;;;;21.87;38.95;102012.34;104336;1298;71219;-81
2024/04/12 06:52:45;;;;;;;;;;;;;;;21.86;38.85;102010.99;104707;1291;75739;-78
2024/04/12 06:55:15;;;;;;;;;;;;;;;21.83;38.83;102012.60;104851;1290;62974;-80
2024/04/12 06:57:44;;;;;;;;;;;;;;;21.78;38.73;102020.38;104687;1291;61545;-80
2024/04/12 07:00:10;;;;;;;;;;;;;;;21.73;38.80;102019.38;105861;1291;72297;-79
2024/04/12 07:02:35;;;;;;;;;;;;;;;21.71;38.74;102019.84;105943;1289;60412;-80
2024/04/12 07:05:01;;;;;;;;;;;;;;;21.71;38.78;102019.88;105515;1290;62942;-78
2024/04/12 07:07:28;;;;;;;;;;;;;;;21.73;38.72;102024.23;104355;1289;62991;-80
2024/04/12 07:09:57;;;;;;;;;;;;;;;21.77;38.93;102020.98;104770;1289;60618;-79
2024/04/12 07:12:27;;;;;;;;;;;;;;;21.82;39.00;102024.27;105991;1289;76102;-78
2024/04/12 07:14:54;;;;;;;;;;;;;;;21.86;39.19;102022.09;106060;1295;60629;-79
2024/04/12 07:17:20;;;;;;;;;;;;;;;21.90;39.11;102023.84;106187;1288;62294;-79
2024/04/12 07:19:49;;;;;;;;;;;;;;;21.94;39.25;102026.33;105140;1288;62911;-79
2024/04/12 07:22:18;;;;;;;;;;;;;;;21.97;39.28;102029.20;104576;1288;76165;-79
2024/04/12 07:24:53;;;;;;;;;;;;;;;22.01;39.33;102027.74;104202;1290;62861;-79
2024/04/12 07:27:22;;;;;;;;;;;;;;;22.03;39.43;102026.33;104594;1292;62881;-79
2024/04/12 07:29:49;;;;;;;;;;;;;;;22.04;39.51;102021.24;104428;1289;72446;-79
2024/04/12 07:32:15;;;;;;;;;;;;;;;22.05;39.47;102023.70;104356;1290;62938;-81
2024/04/12 07:34:49;;;;;;;;;;;;;;;22.06;39.19;102019.54;105207;1289;62936;-79
2024/04/12 07:37:47;;;;;;;;;;;;;;;;;;;;;
2024/04/12 07:40:24;;;;;;;;;;;;;;;22.08;39.05;102025.70;104317;1288;72556;-79
2024/04/12 07:42:52;;;;;;;;;;;;;;;22.08;38.97;102023.70;104274;1290;76243;-81
2024/04/12 07:45:24;;;;;;;;;;;;;;;22.08;38.85;102024.44;104145;1293;60980;-79
2024/04/12 07:47:53;;;;;;;;;;;;;;;22.08;38.89;102024.96;104187;1291;62884;-80
2024/04/12 07:50:29;;;;;;;;;;;;;;;22.08;38.79;102031.59;104215;1295;72243;-79
2024/04/12 07:52:58;;;;;;;;;;;;;;;22.08;38.59;102032.52;104582;1292;74953;-82
2024/04/12 07:55:24;;;;;;;;;;;;;;;22.05;38.47;102034.10;104526;1288;62848;-79
2024/04/12 07:57:52;;;;;;;;;;;;;;;22.03;38.42;102035.46;104346;1291;63011;-79
2024/04/12 08:00:35;;;;;;;;;;;;;;;22.02;38.36;102032.67;104546;1291;72415;-79
2024/04/12 08:03:06;;;;;;;;;;;;;;;22.01;38.16;102032.00;104770;1291;76281;-77
2024/04/12 08:05:42;;;;;;;;;;;;;;;22.03;38.30;102026.92;104638;1291;61806;-78
2024/04/12 08:08:14;;;;;;;;;;;;;;;22.04;38.30;102026.12;104769;1288;62901;-79
2024/04/12 08:10:41;;;;;;;;;;;;;;;22.05;38.19;102026.08;104664;1290;71868;-80
2024/04/12 08:13:10;;;;;;;;;;;;;;;22.05;38.19;102020.85;106076;1290;76086;-80
2024/04/12 08:15:42;;;;;;;;;;;;;;;22.06;38.25;102018.29;106133;1289;60322;-78
2024/04/12 08:18:08;;;;;;;;;;;;;;;22.08;38.26;102020.69;105976;1288;61252;-81
2024/04/12 08:20:39;;;;;;;;;;;;;;;22.09;38.12;102021.50;104395;1297;62879;-79
2024/04/12 08:23:07;;;;;;;;;;;;;;;22.10;38.19;102019.13;104785;1290;76174;-79
2024/04/12 08:25:36;;;;;;;;;;;;;;;22.12;38.18;102015.81;104353;1288;63040;-79
2024/04/12 08:28:06;;;;;;;;;;;;;;;22.13;38.08;102013.96;104550;1295;62883;-82
2024/04/12 08:30:32;;;;;;;;;;;;;;;22.15;38.06;102016.91;104474;1289;71434;-80
2024/04/12 08:33:02;;;;;;;;;;;;;;;22.15;38.02;102018.16;104486;1291;75990;-81
2024/04/12 08:35:29;;;;;;;;;;;;;;;22.16;38.00;102022.20;104201;1291;62818;-79
2024/04/12 08:37:54;;;;;;;;;;;;;;;22.17;37.93;102019.29;104139;1294;62997;-78
2024/04/12 08:40:21;;;;;;;;;;;;;;;22.18;37.96;102017.45;104502;1290;63000;-79
2024/04/12 08:42:47;;;;;;;;;;;;;;;22.18;38.02;102016.73;104396;1290;62934;-79
2024/04/12 08:45:14;;;;;;;;;;;;;;;22.18;37.78;102018.01;105267;1291;60601;-78
2024/04/12 08:47:51;;;;;;;;;;;;;;;22.13;37.59;102015.56;104791;1289;62902;-80
2024/04/12 08:50:23;;;;;;;;;;;;;;;22.12;37.63;102017.23;105429;1294;72523;-79
2024/04/12 08:52:49;;;;;;;;;;;;;;;22.12;37.56;102013.10;104762;1289;75848;-81
2024/04/12 08:55:15;;;;;;;;;;;;;;;22.12;37.53;102008.09;105384;1288;63689;-80
2024/04/12 08:57:41;;;;;;;;;;;;;;;22.13;37.32;102011.81;105208;1289;62870;-80
2024/04/12 09:00:21;;;;;;;;;;;;;;;22.13;37.28;102006.26;105144;1294;62899;-82
2024/04/12 09:02:58;;;;;;;;;;;;;;;22.15;37.37;102005.06;105085;1289;76079;-81
2024/04/12 09:05:25;;;;;;;;;;;;;;;22.15;37.29;102002.76;105159;1289;62654;-80
2024/04/12 09:07:51;;;;;;;;;;;;;;;22.16;37.39;102002.33;104486;1295;62993;-80
2024/04/12 09:10:20;;;;;;;;;;;;;;;22.18;37.36;102000.80;104462;1295;60721;-80
2024/04/12 09:12:46;;;;;;;;;;;;;;;22.18;37.20;101998.64;104835;1293;76111;-79
2024/04/12 09:15:23;;;;;;;;;;;;;;;22.15;37.03;101998.07;104700;1294;61778;-81
2024/04/12 09:17:58;;;;;;;;;;;;;;;22.12;36.73;101993.41;104733;1295;61343;-81
2024/04/12 09:20:30;;;;;;;;;;;;;;;22.12;36.85;101988.40;105572;1294;72058;-80
2024/04/12 09:23:13;;;;;;;;;;;;;;;22.13;36.83;101987.82;105791;1293;76164;-82
2024/04/12 09:25:41;;;;;;;;;;;;;;;22.10;36.66;101985.25;105747;1293;60648;-82
2024/04/12 09:28:12;;;;;;;;;;;;;;;22.08;36.54;101982.48;105769;1293;61024;-79
2024/04/12 09:33:26;;;;;;;;;;;;;;;22.08;36.32;101986.46;105764;1294;76156;-80
2024/04/12 09:35:52;;;;;;;;;;;;;;;22.06;36.19;101977.05;104810;1294;60303;-81
2024/04/12 09:38:21;;;;;;;;;;;;;;;22.07;36.31;101975.19;104413;1294;62887;-85
2024/04/12 09:41:02;;;;;;;;;;;;;;;22.09;36.23;101974.73;105753;1292;72445;-80
2024/04/12 09:43:31;;;;;;;;;;;;;;;22.10;36.27;101971.11;105836;1291;75892;-81
2024/04/12 09:46:08;;;;;;;;;;;;;;;22.12;36.51;101968.67;105669;1291;61284;-80
2024/04/12 10:38:35;;;;;;;;;;;;;;;22.27;36.46;101923.67;105785;1290;76038;-80
2024/04/12 10:41:07;;;;;;;;;;;;;;;22.27;36.46;101927.24;105810;1288;61494;-79
2024/04/12 10:43:36;;;;;;;;;;;;;;;22.28;36.45;101925.40;105956;1289;60468;-80
2024/04/12 10:46:04;;;;;;;;;;;;;;;22.30;36.49;101926.21;105886;1291;72187;-79
2024/04/12 10:48:33;;;;;;;;;;;;;;;22.30;36.51;101923.14;105914;1289;75308;-79
2024/04/12 10:51:00;;;;;;;;;;;;;;;22.30;36.38;101927.61;105970;1291;61030;-80
2024/04/12 10:53:29;;;;;;;;;;;;;;;22.30;36.43;101922.59;105973;1290;61363;-79
2024/04/12 10:55:55;;;;;;;;;;;;;;;22.31;36.36;101916.27;105733;1290;72493;-79
2024/04/12 10:58:27;;;;;;;;;;;;;;;22.32;36.39;101918.00;105677;1288;61009;-78
2024/04/12 11:00:55;;;;;;;;;;;;;;;22.34;36.63;101916.46;105692;1291;60398;-78
2024/04/12 11:03:24;;;;;;;;;;;;;;;22.36;36.68;101914.21;105574;1291;61461;-79
2024/04/12 11:05:51;;;;;;;;;;;;;;;22.40;36.62;101913.83;105477;1291;71067;-78
2024/04/12 11:08:17;;;;;;;;;;;;;;;22.42;36.66;101906.16;105694;1290;76137;-79
2024/04/12 11:10:54;;;;;;;;;;;;;;;22.44;36.67;101899.59;105654;1292;60751;-80
2024/04/12 11:13:28;;;;;;;;;;;;;;;22.45;36.77;101899.13;105575;1290;61214;-80
2024/04/12 11:32:15;;;;;;;;;;;;;;;22.43;36.30;101877.03;105698;1289;60354;-79
2024/04/12 11:34:42;;;;;;;;;;;;;;;22.43;36.40;101875.23;105837;1290;60248;-79
2024/04/12 11:37:12;;;;;;;;;;;;;;;22.42;36.32;101874.73;105814;1289;61289;-80
2024/04/12 11:39:38;;;;;;;;;;;;;;;22.43;36.40;101874.72;105664;1291;76472;-80
2024/04/12 11:42:05;;;;;;;;;;;;;;;22.42;36.36;101874.38;105487;1291;61071;-79
2024/04/12 11:44:33;;;;;;;;;;;;;;;22.43;36.40;101871.63;105959;1288;60496;-80
2024/04/12 11:47:02;;;;;;;;;;;;;;;22.48;36.57;101871.18;105781;1291;72952;-81
2024/04/12 11:49:30;;;;;;;;;;;;;;;22.50;36.65;101873.20;105787;1291;75909;-78
2024/04/12 11:51:56;;;;;;;;;;;;;;;22.51;36.63;101868.64;105770;1291;61224;-78
2024/04/12 11:54:22;;;;;;;;;;;;;;;22.54;36.83;101862.58;105912;1291;61067;-80
2024/04/12 11:56:49;;;;;;;;;;;;;;;22.56;36.92;101865.70;105483;1289;71383;-78
2024/04/12 11:59:18;;;;;;;;;;;;;;;22.56;36.71;101858.71;105892;1290;60662;-80
2024/04/12 12:01:45;;;;;;;;;;;;;;;22.55;36.50;101861.80;105785;1290;61290;-81
2024/04/12 12:04:11;;;;;;;;;;;;;;;22.54;36.32;101856.83;105775;1288;61152;-80
2024/04/12 12:06:37;;;;;;;;;;;;;;;22.53;36.33;101847.01;105652;1291;60732;-80
2024/04/12 12:09:11;;;;;;;;;;;;;;;22.53;36.42;101842.88;105744;1288;61365;-80
2024/04/12 12:11:42;;;;;;;;;;;;;;;22.54;36.34;101842.27;105789;1289;60905;-80
2024/04/12 12:14:08;;;;;;;;;;;;;;;22.55;36.29;101834.15;105893;1290;61087;-80
2024/04/12 12:16:34;;;;;;;;;;;;;;;22.54;36.33;101827.36;105947;1289;60423;-81
2024/04/12 12:18:59;;;;;;;;;;;;;;;22.53;36.28;101825.29;105949;1290;60498;-81
2024/04/12 12:21:25;;;;;;;;;;;;;;;22.52;36.31;101821.58;105825;1291;60616;-81
2024/04/12 12:23:50;;;;;;;;;;;;;;;22.53;36.29;101823.37;105912;1291;61162;-81
2024/04/12 12:26:16;;;;;;;;;;;;;;;22.52;36.22;101826.64;106046;1290;60561;-79
2024/04/12 12:28:42;;;;;;;;;;;;;;;22.53;36.06;101825.33;106000;1291;60859;-79
2024/04/12 12:31:07;;;;;;;;;;;;;;;22.52;36.07;101822.67;106131;1290;60747;-80
2024/04/12 12:33:38;;;;;;;;;;;;;;;22.52;36.06;101819.63;106083;1290;60628;-79
2024/04/12 12:36:06;;;;;;;;;;;;;;;22.52;36.10;101818.17;105998;1288;61360;-78
2024/04/12 12:38:32;;;;;;;;;;;;;;;22.52;36.11;101806.21;105603;1290;72547;-78
2024/04/12 12:40:58;;;;;;;;;;;;;;;22.52;36.02;101806.52;105676;1294;61003;-80
2024/04/12 12:43:28;;;;;;;;;;;;;;;22.53;36.08;101804.16;105910;1291;61072;-79
2024/04/12 12:45:54;;;;;;;;;;;;;;;22.52;35.91;101798.24;105873;1289;60477;-80
2024/04/12 12:48:20;;;;;;;;;;;;;;;22.52;35.94;101796.84;105994;1291;72545;-79
2024/04/12 12:50:46;;;;;;;;;;;;;;;22.53;35.82;101794.98;105979;1290;60719;-81
2024/04/12 12:53:12;;;;;;;;;;;;;;;22.54;35.83;101790.59;106000;1290;61405;-79
2024/04/12 12:55:39;;;;;;;;;;;;;;;22.55;35.77;101785.16;105833;1288;61645;-79
2024/04/12 12:58:11;;;;;;;;;;;;;;;22.55;35.86;101780.33;105975;1290;60042;-81
2024/04/12 13:00:44;;;;;;;;;;;;;;;22.55;35.87;101779.80;105943;1291;78445;-79
2024/04/12 13:03:17;;;;;;;;;;;;;;;22.54;35.91;101776.94;105992;1292;61178;-80
2024/04/12 13:05:45;;;;;;;;;;;;;;;22.56;36.02;101767.55;105869;1290;61098;-81
2024/04/12 13:08:15;;;;;;;;;;;;;;;22.57;36.02;101766.59;106061;1290;71313;-80
2024/04/12 13:10:46;;;;;;;;;;;;;;;22.59;36.08;101765.22;105983;1291;76124;-80
2024/04/12 13:13:17;;;;;;;;;;;;;;;22.59;35.99;101759.05;105859;1290;63103;-78
2024/04/12 13:15:44;;;;;;;;;;;;;;;22.59;36.07;101757.50;104846;1291;61204;-79
2024/04/12 13:18:09;;;;;;;;;;;;;;;22.59;36.04;101754.27;105109;1289;60772;-78
2024/04/12 13:20:36;;;;;;;;;;;;;;;22.59;36.10;101753.88;105132;1290;60705;-79
2024/04/12 13:23:02;;;;;;;;;;;;;;;22.59;36.02;101754.45;106078;1290;60696;-80
2024/04/12 13:25:28;;;;;;;;;;;;;;;22.59;35.99;101753.17;106040;1291;60431;-78
2024/04/12 13:27:54;;;;;;;;;;;;;;;22.59;36.08;101750.31;105998;1291;60479;-79
2024/04/12 13:30:21;;;;;;;;;;;;;;;22.59;36.08;101746.35;106122;1290;60340;-78
2024/04/12 13:32:50;;;;;;;;;;;;;;;22.59;36.08;101746.16;105682;1290;63007;-79
2024/04/12 13:35:25;;;;;;;;;;;;;;;22.59;36.16;101745.05;104380;1290;62979;-80
2024/04/12 13:37:52;;;;;;;;;;;;;;;22.60;36.17;101740.20;103882;1290;70245;-78
2024/04/12 13:40:18;;;;;;;;;;;;;;;22.60;36.05;101740.18;104758;1290;76322;-79
2024/04/12 13:42:45;;;;;;;;;;;;;;;22.60;36.02;101738.54;103991;1291;62927;-78
2024/04/12 13:50:55;;;;;;;;;;;;;;;22.59;36.04;101726.63;103692;1290;75970;-78
2024/04/12 13:53:31;;;;;;;;;;;;;;;22.58;36.12;101723.61;103592;1290;63263;-77
2024/04/12 13:56:19;;;;;;;;;;;;;;;22.58;36.15;101722.21;104146;1291;62895;-78
2024/04/12 13:58:53;;;;;;;;;;;;;;;22.57;36.12;101718.65;103908;1291;72653;-81